createdAt,value
2022-10-17T00:00:57.009Z,81.16
2022-10-17T00:01:58.447Z,81.02
2022-10-17T00:02:59.895Z,81.07
2022-10-17T00:04:01.369Z,81.54
2022-10-17T00:05:02.830Z,81.60
2022-10-17T00:06:07.695Z,81.73
2022-10-17T00:07:09.127Z,81.80
2022-10-17T00:08:10.747Z,82.07
2022-10-17T00:09:12.607Z,81.85
2022-10-17T00:10:14.128Z,82.14
2022-10-17T00:11:19.538Z,82.48
2022-10-17T00:12:20.994Z,82.62
2022-10-17T00:13:22.436Z,82.71
2022-10-17T00:14:23.926Z,82.99
2022-10-17T00:15:25.400Z,83.18
2022-10-17T00:16:28.063Z,83.15
2022-10-17T00:17:30.126Z,83.25
2022-10-17T00:18:31.804Z,83.39
2022-10-17T00:19:33.391Z,83.74
2022-10-17T00:20:35.452Z,83.73
2022-10-17T00:21:36.927Z,83.67
2022-10-17T00:22:38.378Z,83.82
2022-10-17T00:23:39.875Z,83.71
2022-10-17T00:24:41.347Z,83.48
2022-10-17T00:25:42.775Z,83.33
2022-10-17T00:26:44.279Z,83.19
2022-10-17T00:27:45.762Z,83.07
2022-10-17T00:28:49.569Z,83.34
2022-10-17T00:29:51.275Z,83.53
2022-10-17T00:30:59.066Z,83.25
2022-10-17T00:32:00.580Z,83.58
2022-10-17T00:33:02.028Z,83.76
2022-10-17T00:34:03.642Z,83.51
2022-10-17T00:35:05.129Z,82.75
2022-10-17T00:36:07.764Z,83.07
2022-10-17T00:37:09.995Z,83.46
2022-10-17T00:38:11.430Z,83.50
2022-10-17T00:39:13.679Z,83.24
2022-10-17T00:40:15.158Z,83.31
2022-10-17T00:41:17.846Z,83.31
2022-10-17T00:42:19.379Z,83.47
2022-10-17T00:43:20.847Z,84.09
2022-10-17T00:44:31.291Z,83.92
2022-10-17T00:45:32.831Z,83.62
2022-10-17T00:46:35.076Z,83.96
2022-10-17T00:47:36.599Z,84.05
2022-10-17T00:48:38.130Z,84.40
2022-10-17T00:49:39.666Z,84.16
2022-10-17T00:50:41.634Z,84.20
2022-10-17T00:51:43.965Z,84.52
2022-10-17T00:52:45.497Z,84.43
2022-10-17T00:53:46.940Z,84.36
2022-10-17T00:54:49.355Z,84.29
2022-10-17T00:55:51.439Z,84.51
2022-10-17T00:56:52.910Z,84.51
2022-10-17T00:57:54.418Z,84.23
2022-10-17T00:58:55.957Z,84.00
2022-10-17T00:59:57.431Z,84.08
2022-10-17T01:00:58.894Z,84.06
2022-10-17T01:02:00.908Z,84.03
2022-10-17T01:03:02.379Z,84.00
2022-10-17T01:04:03.870Z,83.96
2022-10-17T01:05:06.210Z,84.32
2022-10-17T01:06:09.436Z,84.14
2022-10-17T01:07:11.003Z,84.32
2022-10-17T01:08:12.462Z,84.66
2022-10-17T01:09:13.910Z,85.02
2022-10-17T01:10:15.419Z,84.76
2022-10-17T01:11:20.654Z,84.66
2022-10-17T01:12:23.344Z,84.84
2022-10-17T01:13:51.330Z,84.53
2022-10-17T01:14:55.942Z,84.30
2022-10-17T01:16:00.609Z,84.42
2022-10-17T01:17:06.614Z,85.17
2022-10-17T01:18:26.242Z,84.62
2022-10-17T01:19:44.730Z,84.34
2022-10-17T01:20:51.802Z,84.16
2022-10-17T01:21:58.367Z,83.77
2022-10-17T01:23:02.803Z,83.85
2022-10-17T01:24:16.286Z,83.54
2022-10-17T01:25:21.017Z,83.51
2022-10-17T01:26:41.658Z,83.39
2022-10-17T01:27:49.535Z,83.15
2022-10-17T01:29:04.163Z,83.17
2022-10-17T01:30:17.455Z,83.19
2022-10-17T01:31:34.022Z,83.59
2022-10-17T01:32:56.340Z,83.83
2022-10-17T01:34:02.647Z,83.84
2022-10-17T01:35:07.286Z,83.73
2022-10-17T01:36:10.352Z,83.90
2022-10-17T01:37:30.666Z,84.00
2022-10-17T01:38:33.823Z,84.12
2022-10-17T01:39:45.667Z,84.13
2022-10-17T01:40:51.157Z,84.06
2022-10-17T01:42:11.543Z,84.26
2022-10-17T01:43:12.976Z,84.66
2022-10-17T01:44:14.692Z,84.38
2022-10-17T01:45:17.027Z,84.33
2022-10-17T01:46:33.990Z,84.33
2022-10-17T01:47:35.492Z,84.23
2022-10-17T01:48:37.457Z,84.14
2022-10-17T01:49:39.193Z,84.14
2022-10-17T01:50:44.701Z,83.96
2022-10-17T01:51:49.960Z,83.92
2022-10-17T01:52:55.786Z,83.53
2022-10-17T01:53:59.371Z,83.93
2022-10-17T01:55:04.725Z,83.41
2022-10-17T01:56:06.973Z,83.18
2022-10-17T01:57:09.662Z,83.10
2022-10-17T01:58:15.102Z,82.77
2022-10-17T01:59:45.542Z,82.55
2022-10-17T02:00:47.040Z,82.46
2022-10-17T02:01:49.526Z,82.18
2022-10-17T02:02:52.322Z,82.00
2022-10-17T02:03:53.794Z,81.85
2022-10-17T02:04:56.089Z,82.28
2022-10-17T02:05:57.546Z,82.36
2022-10-17T02:07:05.886Z,82.65
2022-10-17T02:08:07.453Z,82.88
2022-10-17T02:09:25.359Z,82.94
2022-10-17T02:10:36.550Z,83.14
2022-10-17T02:11:38.063Z,83.18
2022-10-17T02:12:53.987Z,83.12
2022-10-17T02:14:01.096Z,83.25
2022-10-17T02:15:22.597Z,83.75
2022-10-17T02:16:29.475Z,83.90
2022-10-17T02:17:43.343Z,83.79
2022-10-17T02:18:52.542Z,84.36
2022-10-17T02:19:56.564Z,84.85
2022-10-17T02:21:00.957Z,84.75
2022-10-17T02:22:20.906Z,84.67
2022-10-17T02:23:34.332Z,84.56
2022-10-17T02:24:38.847Z,84.40
2022-10-17T02:25:47.347Z,84.09
2022-10-17T02:26:53.706Z,84.40
2022-10-17T02:28:30.209Z,84.22
2022-10-17T02:29:36.780Z,85.02
2022-10-17T02:30:49.982Z,85.12
2022-10-17T02:33:39.580Z,86.43
2022-10-17T02:34:41.963Z,86.69
2022-10-17T02:35:44.655Z,86.80
2022-10-17T02:36:48.984Z,86.65
2022-10-17T02:37:50.529Z,86.91
2022-10-17T02:38:51.986Z,86.88
2022-10-17T02:39:54.180Z,86.79
2022-10-17T02:40:55.651Z,86.77
2022-10-17T02:41:57.999Z,86.64
2022-10-17T02:42:59.985Z,86.97
2022-10-17T02:44:03.202Z,87.24
2022-10-17T02:45:04.880Z,87.40
2022-10-17T02:46:07.046Z,87.65
2022-10-17T02:47:20.563Z,87.68
2022-10-17T02:48:30.911Z,87.68
2022-10-17T02:49:34.126Z,87.95
2022-10-17T02:50:38.267Z,87.99
2022-10-17T02:51:44.059Z,88.00
2022-10-17T02:52:46.395Z,88.22
2022-10-17T02:53:51.027Z,87.97
2022-10-17T02:54:54.465Z,88.26
2022-10-17T02:55:57.061Z,88.15
2022-10-17T02:56:59.755Z,87.61
2022-10-17T02:58:03.610Z,87.34
2022-10-17T02:59:05.079Z,87.14
2022-10-17T03:00:07.580Z,87.08
2022-10-17T03:01:09.143Z,87.16
2022-10-17T03:02:10.960Z,87.29
2022-10-17T03:03:25.705Z,86.88
2022-10-17T03:04:27.246Z,86.89
2022-10-17T03:05:29.263Z,86.69
2022-10-17T03:06:30.715Z,86.57
2022-10-17T03:07:32.301Z,86.42
2022-10-17T03:08:35.464Z,86.68
2022-10-17T03:09:37.161Z,86.58
2022-10-17T03:10:39.117Z,86.57
2022-10-17T03:11:40.870Z,86.51
2022-10-17T03:12:43.363Z,86.19
2022-10-17T03:13:45.355Z,86.10
2022-10-17T03:14:46.815Z,86.25
2022-10-17T03:15:48.285Z,86.09
2022-10-17T03:16:49.859Z,85.99
2022-10-17T03:17:52.764Z,86.21
2022-10-17T03:18:54.373Z,85.80
2022-10-17T03:19:55.935Z,85.66
2022-10-17T03:20:57.423Z,85.74
2022-10-17T03:21:58.999Z,85.93
2022-10-17T03:23:00.444Z,85.74
2022-10-17T03:24:02.633Z,86.28
2022-10-17T03:25:04.207Z,85.90
2022-10-17T03:26:06.114Z,85.65
2022-10-17T03:27:08.791Z,85.90
2022-10-17T03:28:12.411Z,85.85
2022-10-17T03:29:14.343Z,85.56
2022-10-17T03:30:15.879Z,85.51
2022-10-17T03:31:17.830Z,85.38
2022-10-17T03:32:20.678Z,85.77
2022-10-17T03:33:22.736Z,85.83
2022-10-17T03:34:24.478Z,86.10
2022-10-17T03:35:26.428Z,86.12
2022-10-17T03:36:28.295Z,86.43
2022-10-17T03:37:30.488Z,86.33
2022-10-17T03:38:34.044Z,85.99
2022-10-17T03:39:35.510Z,86.09
2022-10-17T03:40:37.028Z,85.95
2022-10-17T03:41:38.860Z,85.91
2022-10-17T03:42:40.486Z,86.04
2022-10-17T03:43:42.275Z,85.83
2022-10-17T03:44:43.823Z,85.47
2022-10-17T03:45:45.300Z,85.43
2022-10-17T03:46:46.802Z,85.38
2022-10-17T03:47:48.301Z,85.49
2022-10-17T03:48:50.189Z,85.23
2022-10-17T03:49:53.531Z,85.10
2022-10-17T03:50:59.177Z,84.94
2022-10-17T03:52:00.734Z,84.86
2022-10-17T03:53:02.684Z,84.65
2022-10-17T03:54:04.308Z,84.22
2022-10-17T03:55:05.914Z,84.26
2022-10-17T03:56:11.020Z,83.82
2022-10-17T03:57:13.024Z,83.47
2022-10-17T03:58:14.519Z,83.15
2022-10-17T03:59:16.221Z,82.86
2022-10-17T04:00:24.075Z,82.67
2022-10-17T04:01:31.213Z,82.42
2022-10-17T04:02:32.762Z,82.23
2022-10-17T04:03:34.375Z,82.02
2022-10-17T04:04:35.855Z,82.02
2022-10-17T04:05:37.955Z,82.22
2022-10-17T04:06:39.521Z,82.21
2022-10-17T04:07:41.311Z,82.34
2022-10-17T04:08:43.046Z,82.44
2022-10-17T04:09:51.353Z,82.53
2022-10-17T04:10:59.759Z,82.89
2022-10-17T04:12:01.274Z,83.05
2022-10-17T04:13:02.924Z,82.88
2022-10-17T04:14:04.998Z,82.98
2022-10-17T04:15:06.933Z,82.58
2022-10-17T04:16:10.214Z,82.58
2022-10-17T04:17:16.115Z,82.85
2022-10-17T04:18:17.554Z,82.58
2022-10-17T04:19:19.086Z,82.30
2022-10-17T04:20:22.220Z,82.23
2022-10-17T04:21:24.670Z,81.84
2022-10-17T04:22:26.975Z,81.81
2022-10-17T04:23:28.726Z,81.64
2022-10-17T04:24:35.815Z,81.41
2022-10-17T04:25:43.623Z,81.67
2022-10-17T04:26:45.148Z,81.28
2022-10-17T04:27:49.034Z,81.15
2022-10-17T04:28:50.830Z,81.25
2022-10-17T04:29:52.296Z,81.33
2022-10-17T04:31:02.955Z,81.05
2022-10-17T04:32:10.115Z,80.89
2022-10-17T04:33:29.300Z,80.69
2022-10-17T04:34:30.793Z,80.86
2022-10-17T04:35:32.392Z,80.91
2022-10-17T04:36:37.666Z,80.75
2022-10-17T04:37:39.149Z,80.83
2022-10-17T04:38:47.104Z,80.83
2022-10-17T04:39:48.615Z,80.56
2022-10-17T04:40:50.095Z,80.49
2022-10-17T04:41:51.555Z,80.35
2022-10-17T04:42:53.112Z,80.29
2022-10-17T04:43:58.093Z,80.01
2022-10-17T04:45:00.862Z,79.97
2022-10-17T04:46:03.195Z,79.89
2022-10-17T04:47:04.713Z,79.65
2022-10-17T04:48:06.260Z,79.57
2022-10-17T04:49:08.757Z,79.33
2022-10-17T04:50:11.260Z,79.09
2022-10-17T04:51:15.231Z,79.16
2022-10-17T04:52:34.706Z,78.87
2022-10-17T04:53:37.312Z,78.55
2022-10-17T04:54:39.059Z,78.66
2022-10-17T04:55:43.528Z,78.74
2022-10-17T04:56:45.112Z,78.51
2022-10-17T04:57:46.619Z,78.62
2022-10-17T04:58:54.379Z,78.26
2022-10-17T04:59:56.659Z,78.23
2022-10-17T05:01:30.269Z,77.67
2022-10-17T05:02:32.629Z,77.90
2022-10-17T05:03:36.406Z,77.76
2022-10-17T05:04:37.871Z,77.68
2022-10-17T05:05:40.067Z,77.56
2022-10-17T05:06:41.620Z,77.39
2022-10-17T05:08:01.291Z,77.36
2022-10-17T05:09:06.140Z,77.35
2022-10-17T05:10:08.062Z,77.34
2022-10-17T05:11:19.742Z,77.49
2022-10-17T05:12:21.734Z,77.28
2022-10-17T05:13:23.282Z,77.15
2022-10-17T05:14:24.758Z,77.16
2022-10-17T05:15:26.219Z,77.19
2022-10-17T05:16:29.414Z,77.00
2022-10-17T05:17:30.875Z,77.18
2022-10-17T05:18:32.399Z,77.05
2022-10-17T05:19:33.881Z,77.07
2022-10-17T05:20:35.571Z,77.05
2022-10-17T05:21:37.473Z,76.86
2022-10-17T05:22:42.050Z,76.81
2022-10-17T05:23:45.031Z,76.86
2022-10-17T05:24:46.515Z,76.80
2022-10-17T05:25:48.352Z,77.14
2022-10-17T05:26:50.267Z,76.77
2022-10-17T05:27:52.222Z,77.07
2022-10-17T05:28:54.728Z,77.38
2022-10-17T05:29:57.839Z,77.39
2022-10-17T05:31:05.726Z,77.58
2022-10-17T05:32:07.198Z,77.27
2022-10-17T05:33:09.662Z,77.82
2022-10-17T05:34:13.188Z,77.97
2022-10-17T05:35:16.121Z,78.34
2022-10-17T05:36:17.651Z,78.79
2022-10-17T05:37:19.208Z,78.79
2022-10-17T05:38:24.859Z,78.81
2022-10-17T05:39:26.352Z,79.08
2022-10-17T05:40:27.827Z,78.86
2022-10-17T05:41:29.620Z,78.80
2022-10-17T05:42:31.804Z,78.71
2022-10-17T05:43:33.737Z,78.94
2022-10-17T05:44:35.739Z,78.97
2022-10-17T05:45:37.669Z,79.19
2022-10-17T05:46:39.951Z,79.23
2022-10-17T05:47:41.605Z,79.25
2022-10-17T05:48:43.770Z,79.28
2022-10-17T05:49:50.048Z,79.17
2022-10-17T05:51:02.436Z,79.08
2022-10-17T05:52:04.652Z,79.35
2022-10-17T05:53:11.683Z,79.34
2022-10-17T05:54:19.213Z,79.67
2022-10-17T05:55:20.711Z,79.98
2022-10-17T05:56:22.235Z,79.72
2022-10-17T05:57:26.453Z,79.89
2022-10-17T06:00:01.045Z,80.20
2022-10-17T06:01:06.213Z,80.10
2022-10-17T06:02:10.312Z,80.27
2022-10-17T06:03:11.830Z,80.18
2022-10-17T06:04:13.375Z,80.25
2022-10-17T06:05:15.370Z,80.22
2022-10-17T06:06:17.336Z,80.57
2022-10-17T06:07:19.960Z,80.53
2022-10-17T06:08:22.634Z,80.56
2022-10-17T06:09:24.807Z,80.71
2022-10-17T06:10:28.658Z,80.96
2022-10-17T06:11:30.443Z,81.34
2022-10-17T06:12:32.179Z,81.48
2022-10-17T06:13:34.034Z,81.47
2022-10-17T06:14:39.539Z,81.45
2022-10-17T06:15:41.979Z,81.57
2022-10-17T06:16:43.860Z,81.41
2022-10-17T06:17:45.422Z,81.15
2022-10-17T06:18:46.901Z,81.58
2022-10-17T06:19:48.390Z,81.71
2022-10-17T06:20:50.470Z,81.25
2022-10-17T06:21:53.423Z,81.19
2022-10-17T06:22:57.033Z,80.89
2022-10-17T06:24:30.658Z,80.89
2022-10-17T06:25:32.594Z,80.70
2022-10-17T06:26:34.223Z,80.89
2022-10-17T06:27:35.741Z,81.09
2022-10-17T06:28:37.439Z,81.10
2022-10-17T06:29:39.313Z,81.05
2022-10-17T06:30:41.335Z,81.01
2022-10-17T06:31:42.798Z,81.25
2022-10-17T06:32:44.893Z,81.03
2022-10-17T06:33:46.934Z,80.82
2022-10-17T06:34:48.414Z,80.68
2022-10-17T06:35:53.985Z,81.01
2022-10-17T06:38:04.428Z,80.75
2022-10-17T06:39:07.006Z,80.92
2022-10-17T06:40:15.126Z,80.38
2022-10-17T06:41:18.566Z,80.21
2022-10-17T06:42:20.034Z,79.74
2022-10-17T06:43:47.579Z,80.03
2022-10-17T06:45:18.296Z,79.00
2022-10-17T06:46:29.831Z,78.58
2022-10-17T06:47:36.693Z,78.69
2022-10-17T06:48:48.175Z,78.02
2022-10-17T06:50:08.274Z,78.77
2022-10-17T06:51:16.795Z,77.17
2022-10-17T06:52:23.218Z,76.71
2022-10-17T06:53:53.579Z,77.04
2022-10-17T06:55:24.032Z,77.76
2022-10-17T06:57:03.795Z,76.92
2022-10-17T06:58:20.299Z,76.46
2022-10-17T06:59:43.322Z,76.40
2022-10-17T07:00:50.081Z,74.66
2022-10-17T07:01:52.430Z,75.25
2022-10-17T07:02:53.990Z,74.10
2022-10-17T07:03:55.793Z,74.05
2022-10-17T07:04:57.716Z,73.82
2022-10-17T07:05:59.283Z,73.10
2022-10-17T07:07:03.126Z,72.28
2022-10-17T07:08:05.795Z,71.79
2022-10-17T07:09:07.499Z,71.99
2022-10-17T07:10:11.364Z,71.44
2022-10-17T07:11:15.502Z,71.93
2022-10-17T07:12:17.018Z,72.41
2022-10-17T07:13:20.031Z,72.00
2022-10-17T07:14:21.522Z,71.61
2022-10-17T07:15:23.332Z,71.63
2022-10-17T07:16:25.436Z,70.58
2022-10-17T07:17:35.491Z,70.32
2022-10-17T07:18:37.007Z,70.79
2022-10-17T07:19:38.475Z,70.65
2022-10-17T07:20:42.604Z,70.44
2022-10-17T07:21:44.129Z,70.81
2022-10-17T07:22:46.574Z,70.54
2022-10-17T07:23:48.163Z,70.97
2022-10-17T07:26:09.878Z,71.48
2022-10-17T07:27:13.068Z,70.54
2022-10-17T07:28:14.971Z,70.52
2022-10-17T07:29:16.584Z,70.43
2022-10-17T07:30:22.872Z,69.74
2022-10-17T07:31:32.147Z,69.23
2022-10-17T07:32:33.621Z,69.31
2022-10-17T07:33:35.193Z,68.60
2022-10-17T07:34:36.770Z,68.59
2022-10-17T07:35:40.929Z,68.45
2022-10-17T07:36:42.657Z,68.77
2022-10-17T07:37:44.111Z,69.20
2022-10-17T07:38:45.668Z,69.52
2022-10-17T07:39:47.356Z,69.43
2022-10-17T07:40:53.683Z,69.09
2022-10-17T07:41:55.358Z,69.11
2022-10-17T07:42:58.141Z,68.91
2022-10-17T07:44:00.683Z,69.13
2022-10-17T07:45:08.012Z,69.98
2022-10-17T07:46:11.423Z,69.71
2022-10-17T07:47:13.531Z,68.41
2022-10-17T07:48:15.023Z,68.32
2022-10-17T07:49:16.517Z,68.17
2022-10-17T07:50:19.729Z,67.36
2022-10-17T07:51:21.996Z,67.33
2022-10-17T07:52:23.432Z,67.52
2022-10-17T07:53:24.956Z,67.73
2022-10-17T07:54:26.373Z,67.47
2022-10-17T07:55:27.843Z,67.19
2022-10-17T07:56:29.692Z,67.08
2022-10-17T07:57:31.175Z,66.62
2022-10-17T07:58:32.657Z,66.29
2022-10-17T07:59:34.508Z,66.70
2022-10-17T08:00:36.754Z,65.62
2022-10-17T08:01:38.308Z,65.85
2022-10-17T08:02:39.840Z,66.98
2022-10-17T08:03:42.845Z,65.91
2022-10-17T08:04:44.274Z,65.38
2022-10-17T08:05:45.760Z,65.09
2022-10-17T08:06:47.232Z,64.98
2022-10-17T08:07:48.736Z,65.13
2022-10-17T08:08:50.187Z,63.71
2022-10-17T08:09:51.674Z,64.08
2022-10-17T08:10:54.245Z,64.02
2022-10-17T08:11:55.723Z,64.25
2022-10-17T08:12:57.315Z,62.67
2022-10-17T08:13:58.818Z,61.99
2022-10-17T08:15:00.825Z,61.84
2022-10-17T08:16:02.573Z,61.38
2022-10-17T08:17:04.475Z,61.64
2022-10-17T08:18:05.915Z,61.28
2022-10-17T08:20:15.411Z,61.02
2022-10-17T08:21:16.874Z,61.68
2022-10-17T08:22:18.290Z,61.87
2022-10-17T08:23:19.793Z,61.24
2022-10-17T08:24:21.389Z,61.20
2022-10-17T08:25:22.922Z,61.39
2022-10-17T08:26:24.421Z,61.21
2022-10-17T08:27:27.729Z,61.57
2022-10-17T08:28:29.278Z,60.92
2022-10-17T08:29:32.793Z,60.89
2022-10-17T08:30:34.256Z,60.71
2022-10-17T08:31:35.689Z,60.91
2022-10-17T08:32:37.170Z,60.78
2022-10-17T08:33:38.652Z,60.79
2022-10-17T08:34:40.109Z,60.80
2022-10-17T08:35:41.647Z,60.85
2022-10-17T08:36:43.062Z,61.61
2022-10-17T08:37:44.484Z,62.58
2022-10-17T08:38:48.009Z,62.00
2022-10-17T08:39:53.208Z,61.61
2022-10-17T08:40:55.865Z,60.42
2022-10-17T08:42:00.171Z,60.79
2022-10-17T08:43:04.670Z,60.56
2022-10-17T08:44:06.092Z,60.59
2022-10-17T08:45:10.445Z,60.66
2022-10-17T08:46:11.979Z,59.68
2022-10-17T08:47:14.606Z,60.08
2022-10-17T08:48:18.008Z,59.39
2022-10-17T08:49:21.947Z,60.00
2022-10-17T08:50:37.165Z,59.55
2022-10-17T08:51:40.366Z,59.30
2022-10-17T08:52:43.756Z,59.78
2022-10-17T08:53:48.051Z,59.28
2022-10-17T08:54:49.768Z,58.88
2022-10-17T08:55:51.780Z,59.05
2022-10-17T08:56:53.478Z,59.24
2022-10-17T08:57:54.923Z,58.60
2022-10-17T08:58:56.409Z,57.97
2022-10-17T08:59:57.961Z,58.62
2022-10-17T09:01:11.901Z,58.67
2022-10-17T09:02:33.075Z,59.11
2022-10-17T09:03:38.604Z,58.24
2022-10-17T09:04:43.022Z,58.32
2022-10-17T09:05:52.094Z,58.85
2022-10-17T09:06:59.307Z,58.18
2022-10-17T09:08:19.531Z,58.56
2022-10-17T09:09:28.258Z,59.03
2022-10-17T09:10:32.564Z,59.68
2022-10-17T09:11:34.047Z,60.19
2022-10-17T09:12:38.366Z,59.94
2022-10-17T09:13:58.317Z,59.37
2022-10-17T09:14:59.766Z,59.24
2022-10-17T09:16:05.284Z,59.06
2022-10-17T09:17:25.312Z,59.54
2022-10-17T09:18:31.767Z,58.74
2022-10-17T09:19:37.292Z,59.22
2022-10-17T09:20:47.044Z,59.29
2022-10-17T09:21:58.771Z,59.11
2022-10-17T09:23:00.330Z,59.35
2022-10-17T09:24:09.618Z,59.09
2022-10-17T09:25:12.595Z,58.78
2022-10-17T09:26:14.136Z,59.02
2022-10-17T09:27:23.807Z,58.91
2022-10-17T09:28:27.026Z,58.03
2022-10-17T09:29:34.297Z,58.07
2022-10-17T09:30:46.167Z,58.77
2022-10-17T09:32:06.723Z,58.52
2022-10-17T09:33:23.082Z,59.07
2022-10-17T09:34:33.523Z,57.57
2022-10-17T09:35:35.215Z,57.00
2022-10-17T09:36:37.922Z,56.99
2022-10-17T09:37:39.412Z,56.57
2022-10-17T09:38:41.825Z,56.28
2022-10-17T09:39:43.631Z,55.33
2022-10-17T09:40:45.428Z,55.59
2022-10-17T09:41:50.670Z,55.96
2022-10-17T09:42:52.896Z,56.62
2022-10-17T09:43:57.161Z,57.19
2022-10-17T09:45:05.450Z,57.40
2022-10-17T09:46:06.937Z,56.55
2022-10-17T09:47:27.376Z,54.78
2022-10-17T09:48:34.654Z,54.75
2022-10-17T09:49:37.043Z,54.01
2022-10-17T09:50:38.511Z,54.31
2022-10-17T09:51:40.429Z,54.74
2022-10-17T09:52:42.609Z,54.05
2022-10-17T09:53:48.394Z,53.94
2022-10-17T09:54:55.834Z,53.67
2022-10-17T09:55:57.903Z,52.88
2022-10-17T09:57:03.174Z,52.64
2022-10-17T09:58:05.334Z,53.31
2022-10-17T09:59:09.312Z,52.92
2022-10-17T10:00:20.237Z,53.59
2022-10-17T10:01:28.917Z,53.14
2022-10-17T10:02:31.053Z,52.89
2022-10-17T10:03:32.929Z,53.22
2022-10-17T10:04:46.939Z,53.07
2022-10-17T10:06:02.018Z,53.31
2022-10-17T10:07:04.494Z,53.66
2022-10-17T10:08:06.784Z,53.56
2022-10-17T10:10:27.803Z,53.40
2022-10-17T10:11:48.772Z,53.75
2022-10-17T10:13:06.833Z,53.37
2022-10-17T10:14:11.446Z,52.66
2022-10-17T10:15:35.400Z,52.24
2022-10-17T10:16:41.136Z,52.49
2022-10-17T10:17:42.742Z,52.24
2022-10-17T10:18:45.474Z,52.54
2022-10-17T10:19:51.878Z,52.07
2022-10-17T10:21:04.353Z,51.95
2022-10-17T10:22:06.522Z,51.57
2022-10-17T10:23:11.370Z,51.03
2022-10-17T10:24:13.305Z,50.82
2022-10-17T10:25:15.479Z,50.54
2022-10-17T10:26:21.073Z,50.90
2022-10-17T10:27:22.694Z,51.41
2022-10-17T10:28:28.364Z,51.24
2022-10-17T10:29:31.251Z,51.43
2022-10-17T10:30:36.163Z,51.34
2022-10-17T10:31:40.610Z,50.92
2022-10-17T10:32:42.327Z,51.61
2022-10-17T10:33:46.967Z,51.83
2022-10-17T10:34:54.004Z,52.11
2022-10-17T10:35:56.564Z,51.58
2022-10-17T10:37:16.266Z,51.55
2022-10-17T10:38:18.607Z,51.81
2022-10-17T10:39:38.352Z,52.49
2022-10-17T10:40:46.970Z,52.33
2022-10-17T10:41:48.414Z,51.89
2022-10-17T10:42:50.455Z,51.33
2022-10-17T10:43:51.918Z,51.51
2022-10-17T10:44:54.193Z,50.97
2022-10-17T10:45:55.611Z,50.00
2022-10-17T10:47:07.365Z,50.08
2022-10-17T10:48:14.638Z,49.64
2022-10-17T10:49:29.597Z,49.40
2022-10-17T10:50:33.906Z,49.11
2022-10-17T10:51:37.147Z,49.38
2022-10-17T10:52:42.798Z,50.10
2022-10-17T10:53:45.800Z,49.85
2022-10-17T10:54:51.526Z,50.65
2022-10-17T10:56:00.540Z,50.11
2022-10-17T10:57:03.495Z,50.13
2022-10-17T10:58:08.501Z,50.24
2022-10-17T10:59:11.527Z,50.83
2022-10-17T11:00:15.508Z,50.06
2022-10-17T11:01:37.580Z,49.85
2022-10-17T11:02:57.614Z,50.59
2022-10-17T11:04:02.235Z,50.43
2022-10-17T11:05:04.976Z,49.94
2022-10-17T11:06:11.358Z,49.67
2022-10-17T11:07:12.793Z,50.52
2022-10-17T11:08:34.887Z,50.90
2022-10-17T11:09:45.483Z,50.41
2022-10-17T11:10:52.119Z,51.80
2022-10-17T11:11:59.400Z,52.16
2022-10-17T11:13:05.187Z,51.89
2022-10-17T11:14:19.831Z,52.19
2022-10-17T11:15:44.534Z,51.67
2022-10-17T11:16:57.994Z,52.14
2022-10-17T11:18:08.669Z,52.47
2022-10-17T11:19:28.717Z,52.24
2022-10-17T11:20:36.655Z,52.54
2022-10-17T11:21:44.004Z,52.94
2022-10-17T11:22:47.186Z,53.14
2022-10-17T11:23:53.212Z,53.41
2022-10-17T11:24:57.205Z,52.95
2022-10-17T11:25:59.142Z,53.46
2022-10-17T11:27:04.183Z,53.69
2022-10-17T11:28:25.963Z,53.85
2022-10-17T11:29:28.623Z,53.67
2022-10-17T11:30:32.936Z,53.77
2022-10-17T11:31:35.579Z,53.14
2022-10-17T11:32:41.380Z,53.40
2022-10-17T11:33:49.855Z,53.61
2022-10-17T11:35:17.616Z,53.30
2022-10-17T11:36:22.532Z,53.41
2022-10-17T11:37:26.512Z,53.44
2022-10-17T11:38:37.115Z,53.77
2022-10-17T11:39:55.007Z,54.08
2022-10-17T11:40:57.428Z,54.22
2022-10-17T11:42:18.755Z,54.13
2022-10-17T11:43:20.188Z,54.23
2022-10-17T11:44:51.178Z,53.99
2022-10-17T11:45:53.318Z,53.72
2022-10-17T11:46:55.720Z,53.89
2022-10-17T11:47:59.948Z,53.79
2022-10-17T11:49:10.561Z,54.05
2022-10-17T11:52:09.658Z,54.02
2022-10-17T11:53:17.811Z,53.83
2022-10-17T11:54:26.634Z,53.21
2022-10-17T11:55:28.960Z,52.86
2022-10-17T11:56:51.607Z,53.11
2022-10-17T11:57:55.855Z,53.61
2022-10-17T11:58:57.356Z,53.93
2022-10-17T12:00:03.015Z,53.30
2022-10-17T12:01:09.031Z,53.01
2022-10-17T12:02:36.834Z,53.36
2022-10-17T12:03:41.477Z,52.58
2022-10-17T12:04:49.873Z,53.20
2022-10-17T12:06:05.029Z,52.88
2022-10-17T12:07:10.782Z,52.95
2022-10-17T12:08:26.983Z,52.15
2022-10-17T12:09:30.673Z,51.83
2022-10-17T12:10:38.199Z,52.55
2022-10-17T12:11:54.092Z,52.18
2022-10-17T12:12:55.699Z,52.49
2022-10-17T12:13:57.463Z,53.41
2022-10-17T12:15:14.042Z,53.34
2022-10-17T12:16:21.255Z,53.39
2022-10-17T12:17:30.681Z,53.38
2022-10-17T12:18:35.108Z,54.05
2022-10-17T12:19:36.835Z,53.05
2022-10-17T12:20:38.401Z,51.26
2022-10-17T12:21:58.089Z,51.30
2022-10-17T12:23:02.014Z,50.61
2022-10-17T12:24:03.562Z,51.35
2022-10-17T12:25:05.115Z,50.00
2022-10-17T12:26:09.768Z,50.12
2022-10-17T12:27:30.437Z,50.53
2022-10-17T12:28:33.914Z,50.23
2022-10-17T12:29:35.495Z,50.39
2022-10-17T12:30:37.144Z,50.38
2022-10-17T12:31:38.963Z,49.33
2022-10-17T12:33:06.043Z,49.85
2022-10-17T12:34:15.310Z,49.29
2022-10-17T12:35:19.144Z,49.47
2022-10-17T12:36:23.144Z,49.33
2022-10-17T12:37:43.068Z,49.49
2022-10-17T12:38:47.828Z,48.48
2022-10-17T12:39:51.666Z,48.95
2022-10-17T12:40:53.983Z,48.67
2022-10-17T12:41:55.523Z,48.38
2022-10-17T12:42:56.952Z,49.03
2022-10-17T12:43:58.583Z,49.09
2022-10-17T12:45:00.109Z,48.77
2022-10-17T12:46:01.929Z,49.20
2022-10-17T12:47:03.362Z,49.52
2022-10-17T12:48:05.915Z,49.51
2022-10-17T12:49:19.454Z,49.88
2022-10-17T12:50:44.266Z,48.80
2022-10-17T12:52:04.651Z,49.31
2022-10-17T12:53:06.160Z,49.41
2022-10-17T12:54:12.552Z,49.23
2022-10-17T12:55:15.661Z,49.49
2022-10-17T12:56:18.714Z,48.85
2022-10-17T12:57:25.379Z,49.25
2022-10-17T12:58:26.815Z,49.54
2022-10-17T12:59:28.607Z,49.29
2022-10-17T13:00:30.078Z,49.05
2022-10-17T13:01:32.234Z,48.99
2022-10-17T13:02:34.000Z,48.92
2022-10-17T13:03:35.699Z,48.30
2022-10-17T13:04:37.219Z,48.84
2022-10-17T13:05:40.041Z,48.96
2022-10-17T13:06:48.315Z,48.68
2022-10-17T13:07:49.751Z,48.58
2022-10-17T13:08:57.701Z,48.45
2022-10-17T13:10:05.150Z,47.86
2022-10-17T13:11:06.707Z,47.98
2022-10-17T13:12:11.079Z,47.67
2022-10-17T13:13:26.750Z,48.39
2022-10-17T13:14:28.187Z,47.90
2022-10-17T13:15:29.711Z,47.42
2022-10-17T13:16:32.065Z,47.70
2022-10-17T13:17:34.787Z,48.40
2022-10-17T13:18:36.467Z,47.92
2022-10-17T13:19:42.199Z,47.93
2022-10-17T13:20:43.776Z,47.89
2022-10-17T13:22:06.340Z,48.15
2022-10-17T13:23:22.013Z,47.96
2022-10-17T13:24:41.685Z,47.75
2022-10-17T13:25:43.135Z,47.81
2022-10-17T13:26:47.653Z,47.83
2022-10-17T13:27:49.428Z,47.49
2022-10-17T13:29:05.913Z,47.71
2022-10-17T13:30:26.683Z,47.24
2022-10-17T13:31:32.037Z,48.13
2022-10-17T13:32:37.566Z,48.24
2022-10-17T13:33:39.439Z,48.37
2022-10-17T13:34:41.019Z,47.90
2022-10-17T13:35:59.556Z,47.24
2022-10-17T13:37:02.923Z,47.29
2022-10-17T13:38:06.844Z,47.44
2022-10-17T13:39:12.269Z,46.91
2022-10-17T13:40:40.266Z,47.17
2022-10-17T13:41:38.236Z,47.37
2022-10-17T13:42:39.761Z,47.19
2022-10-17T13:43:41.488Z,47.16
2022-10-17T13:44:43.575Z,47.54
2022-10-17T13:45:49.467Z,47.90
2022-10-17T13:46:51.152Z,47.97
2022-10-17T13:47:52.749Z,47.87
2022-10-17T13:48:54.214Z,47.48
2022-10-17T13:49:55.868Z,47.24
2022-10-17T13:51:00.471Z,47.04
2022-10-17T13:52:04.423Z,47.56
2022-10-17T13:53:08.659Z,47.72
2022-10-17T13:54:28.062Z,47.62
2022-10-17T13:55:29.483Z,47.37
2022-10-17T13:56:31.917Z,47.67
2022-10-17T13:57:33.885Z,47.97
2022-10-17T13:59:06.126Z,48.27
2022-10-17T14:00:12.403Z,48.26
2022-10-17T14:01:14.247Z,48.15
2022-10-17T14:02:16.949Z,48.15
2022-10-17T14:03:19.822Z,47.89
2022-10-17T14:04:21.310Z,47.43
2022-10-17T14:05:23.727Z,47.66
2022-10-17T14:06:25.614Z,48.16
2022-10-17T14:07:46.371Z,47.95
2022-10-17T14:08:59.217Z,47.63
2022-10-17T14:10:00.763Z,47.93
2022-10-17T14:11:02.234Z,47.43